Time;durP1;ratioP1;P1;durP2;ratioP2;P2;SDS_P1;SDS_P2;PMS_P1;PMS_P2;Temp;Humidity;BMP_temperature;BMP_pressure;BME280_temperature;BME280_humidity;BME280_pressure;Samples;Min_cycle;Max_cycle;Signal;HPM_P1;HPM_P2
2022/06/08 00:00:32;;;;;;;1.13;1.00;;;;;;;;;;4955812;28;20461;-72
2022/06/08 00:03:02;;;;;;;1.57;1.00;;;;;;;;;;4955442;28;20424;-71
2022/06/08 00:05:28;;;;;;;0.57;0.57;;;;;;;;;;4955843;28;20415;-72
2022/06/08 00:07:54;;;;;;;1.30;0.93;;;;;;;;;;4955602;28;20594;-71
2022/06/08 00:10:20;;;;;;;1.47;1.00;;;;;;;;;;4955383;28;20419;-72
2022/06/08 00:12:46;;;;;;;1.20;1.20;;;;;;;;;;4955709;28;20423;-72
2022/06/08 00:15:12;;;;;;;0.73;0.73;;;;;;;;;;4955383;28;20578;-72
2022/06/08 00:17:39;;;;;;;1.03;0.80;;;;;;;;;;4970123;28;20451;-71
2022/06/08 00:20:06;;;;;;;4.00;0.97;;;;;;;;;;4955639;28;20423;-72
2022/06/08 00:22:32;;;;;;;2.33;1.07;;;;;;;;;;4955507;28;20517;-72
2022/06/08 00:24:58;;;;;;;0.67;0.67;;;;;;;;;;4955834;28;20450;-72
2022/06/08 00:27:24;;;;;;;0.80;0.80;;;;;;;;;;4955607;28;20427;-71
2022/06/08 00:29:50;;;;;;;1.80;0.90;;;;;;;;;;4955730;28;20498;-71
2022/06/08 00:32:17;;;;;;;8.10;0.90;;;;;;;;;;4955422;28;20438;-71
2022/06/08 00:34:43;;;;;;;0.97;0.83;;;;;;;;;;4955428;28;20452;-72
2022/06/08 00:37:09;;;;;;;0.90;0.90;;;;;;;;;;4955586;28;20568;-71
2022/06/08 00:39:35;;;;;;;0.90;0.90;;;;;;;;;;4955341;28;20423;-72
2022/06/08 00:42:03;;;;;;;3.27;1.23;;;;;;;;;;4955079;28;20460;-72
2022/06/08 00:44:35;;;;;;;1.77;1.33;;;;;;;;;;4955048;28;20434;-72
2022/06/08 00:47:02;;;;;;;2.83;1.20;;;;;;;;;;4955094;28;20426;-72
2022/06/08 00:49:35;;;;;;;2.00;1.07;;;;;;;;;;4954743;28;20458;-72
2022/06/08 00:52:01;;;;;;;2.10;1.00;;;;;;;;;;4955516;28;20419;-72
2022/06/08 00:54:39;;;;;;;3.83;0.90;;;;;;;;;;4955232;28;20422;-72
2022/06/08 00:57:09;;;;;;;2.10;0.73;;;;;;;;;;4954905;28;20516;-71
2022/06/08 00:59:36;;;;;;;1.57;0.80;;;;;;;;;;4955094;28;20427;-72
2022/06/08 01:02:02;;;;;;;1.70;0.90;;;;;;;;;;4954894;28;20426;-72
2022/06/08 01:04:29;;;;;;;1.10;1.00;;;;;;;;;;4955100;28;20510;-72
2022/06/08 01:06:57;;;;;;;2.20;1.10;;;;;;;;;;4954830;28;20459;-72
2022/06/08 01:09:26;;;;;;;1.07;0.70;;;;;;;;;;4954783;28;20434;-72
2022/06/08 01:11:53;;;;;;;0.90;0.90;;;;;;;;;;4954896;28;20427;-72
2022/06/08 01:14:19;;;;;;;0.90;0.90;;;;;;;;;;4955044;28;20892;-72
2022/06/08 01:17:00;;;;;;;0.80;0.80;;;;;;;;;;4954667;28;20586;-72
2022/06/08 01:19:27;;;;;;;1.90;0.90;;;;;;;;;;4954678;28;20927;-72
2022/06/08 01:21:55;;;;;;;3.20;1.20;;;;;;;;;;4954692;28;20817;-72
2022/06/08 01:24:22;;;;;;;1.20;1.20;;;;;;;;;;4954976;28;20423;-72
2022/06/08 01:27:06;;;;;;;2.93;1.50;;;;;;;;;;4954680;28;20446;-72
2022/06/08 01:29:40;;;;;;;1.37;1.30;;;;;;;;;;4955174;28;20411;-72
2022/06/08 01:32:15;;;;;;;1.60;1.40;;;;;;;;;;4954709;28;20396;-72
2022/06/08 01:35:00;;;;;;;2.80;1.10;;;;;;;;;;4954915;28;20413;-72
2022/06/08 01:37:35;;;;;;;1.03;1.00;;;;;;;;;;4954498;28;20430;-71
2022/06/08 01:40:20;;;;;;;5.93;1.17;;;;;;;;;;4954521;28;20414;-71
2022/06/08 01:43:02;;;;;;;1.40;1.30;;;;;;;;;;4954584;28;20776;-72
2022/06/08 01:45:33;;;;;;;0.73;0.73;;;;;;;;;;4954866;28;20506;-71
2022/06/08 01:48:08;;;;;;;6.23;0.80;;;;;;;;;;4954577;28;20423;-72
2022/06/08 01:50:34;;;;;;;1.80;1.00;;;;;;;;;;4955277;28;20450;-72
2022/06/08 01:53:06;;;;;;;0.70;0.70;;;;;;;;;;4954442;28;20437;-72
2022/06/08 01:55:36;;;;;;;2.60;0.90;;;;;;;;;;4954992;28;20466;-72
2022/06/08 01:58:13;;;;;;;2.13;1.10;;;;;;;;;;4955648;28;20766;-71
2022/06/08 02:00:40;;;;;;;1.03;1.03;;;;;;;;;;4958113;28;20399;-72
2022/06/08 02:03:16;;;;;;;1.43;0.90;;;;;;;;;;4957756;28;20512;-72
2022/06/08 02:06:04;;;;;;;8.93;1.10;;;;;;;;;;4958025;28;20434;-72
2022/06/08 02:08:39;;;;;;;0.90;0.90;;;;;;;;;;4957539;28;20817;-72
2022/06/08 02:11:11;;;;;;;1.37;1.37;;;;;;;;;;4957651;28;20464;-72
2022/06/08 02:13:45;;;;;;;1.07;0.80;;;;;;;;;;4957545;28;20423;-72
2022/06/08 02:16:17;;;;;;;3.57;0.70;;;;;;;;;;4957509;28;20489;-72
2022/06/08 02:18:46;;;;;;;1.07;0.97;;;;;;;;;;4957484;28;20904;-71
2022/06/08 02:21:26;;;;;;;3.33;0.73;;;;;;;;;;4957913;28;20893;-72
2022/06/08 02:23:57;;;;;;;10.17;2.23;;;;;;;;;;4957697;28;20414;-72
2022/06/08 02:26:52;;;;;;;0.97;0.97;;;;;;;;;;4957630;28;20427;-72
2022/06/08 02:29:28;;;;;;;1.70;0.90;;;;;;;;;;4939073;28;20423;-72
2022/06/08 02:31:58;;;;;;;1.50;0.90;;;;;;;;;;4957283;28;20422;-72
2022/06/08 02:34:28;;;;;;;1.50;1.20;;;;;;;;;;4957293;28;20404;-72
2022/06/08 02:37:07;;;;;;;0.73;0.73;;;;;;;;;;4957167;28;20506;-72
2022/06/08 02:39:41;;;;;;;1.60;1.17;;;;;;;;;;4957084;28;20411;-72
2022/06/08 02:42:17;;;;;;;1.37;1.00;;;;;;;;;;4957590;28;20941;-72
2022/06/08 02:44:44;;;;;;;2.30;1.50;;;;;;;;;;4957098;28;20486;-72
2022/06/08 02:47:30;;;;;;;3.17;1.00;;;;;;;;;;4957008;28;20423;-72
2022/06/08 02:50:00;;;;;;;3.60;1.10;;;;;;;;;;4956769;28;20474;-72
2022/06/08 02:52:26;;;;;;;1.13;1.13;;;;;;;;;;4957502;28;20447;-72
2022/06/08 02:54:53;;;;;;;1.00;0.83;;;;;;;;;;4957169;28;20422;-72
2022/06/08 02:57:39;;;;;;;7.70;1.30;;;;;;;;;;4956715;28;20474;-72
2022/06/08 03:00:20;;;;;;;3.17;1.47;;;;;;;;;;4957110;28;20403;-72
2022/06/08 03:02:48;;;;;;;0.90;0.90;;;;;;;;;;4956776;28;20426;-72
2022/06/08 03:05:35;;;;;;;1.27;1.27;;;;;;;;;;4956927;28;20438;-72
2022/06/08 03:08:13;;;;;;;0.93;0.93;;;;;;;;;;4957008;28;20433;-72
2022/06/08 03:10:41;;;;;;;1.60;1.40;;;;;;;;;;4956096;28;20406;-72
2022/06/08 03:13:22;;;;;;;9.20;2.67;;;;;;;;;;4971335;28;20443;-72
2022/06/08 03:15:53;;;;;;;1.50;1.40;;;;;;;;;;4956319;28;20463;-72
2022/06/08 03:18:19;;;;;;;3.60;1.83;;;;;;;;;;4956458;28;20430;-72
2022/06/08 03:20:45;;;;;;;3.53;1.20;;;;;;;;;;4956928;28;20419;-72
2022/06/08 03:23:11;;;;;;;1.70;1.53;;;;;;;;;;4956374;28;20423;-72
2022/06/08 03:25:37;;;;;;;4.00;1.20;;;;;;;;;;4956367;28;20907;-72
2022/06/08 03:28:04;;;;;;;1.93;1.10;;;;;;;;;;4956522;28;20423;-72
2022/06/08 03:30:30;;;;;;;2.53;1.53;;;;;;;;;;4956183;28;20554;-72
2022/06/08 03:32:56;;;;;;;2.20;1.67;;;;;;;;;;4956126;28;20868;-71
2022/06/08 03:35:22;;;;;;;1.13;1.03;;;;;;;;;;4956767;28;20498;-72
2022/06/08 03:37:48;;;;;;;2.20;1.60;;;;;;;;;;4956065;28;20483;-72
2022/06/08 03:40:14;;;;;;;4.93;1.13;;;;;;;;;;4956483;28;20415;-72
2022/06/08 03:42:40;;;;;;;2.43;1.60;;;;;;;;;;4955999;28;20457;-72
2022/06/08 03:45:07;;;;;;;1.10;1.03;;;;;;;;;;4956166;28;20506;-72
2022/06/08 03:47:35;;;;;;;1.47;1.03;;;;;;;;;;4956630;28;20788;-72
2022/06/08 03:50:03;;;;;;;2.73;1.30;;;;;;;;;;4955706;28;20959;-72
2022/06/08 03:52:32;;;;;;;2.83;1.10;;;;;;;;;;4956046;28;20434;-72
2022/06/08 03:55:00;;;;;;;1.60;1.17;;;;;;;;;;4955718;28;20915;-72
2022/06/08 03:57:26;;;;;;;1.10;1.10;;;;;;;;;;4955713;28;20439;-72
2022/06/08 03:59:52;;;;;;;2.10;1.13;;;;;;;;;;4955725;28;20411;-72
2022/06/08 04:02:19;;;;;;;2.07;1.20;;;;;;;;;;4955848;28;20419;-72
2022/06/08 04:04:45;;;;;;;1.63;1.53;;;;;;;;;;4955789;28;20415;-72
2022/06/08 04:07:11;;;;;;;1.30;1.20;;;;;;;;;;4955618;28;20418;-72
2022/06/08 04:09:37;;;;;;;2.10;1.17;;;;;;;;;;4955509;28;20423;-72
2022/06/08 04:12:04;;;;;;;0.93;0.90;;;;;;;;;;4955500;28;20419;-71
2022/06/08 04:14:30;;;;;;;3.23;1.50;;;;;;;;;;4955463;28;20414;-71
2022/06/08 04:16:56;;;;;;;1.70;1.60;;;;;;;;;;4955852;28;20487;-72
2022/06/08 04:19:22;;;;;;;7.40;1.33;;;;;;;;;;4955332;28;20423;-72
2022/06/08 04:21:48;;;;;;;1.40;0.80;;;;;;;;;;4955283;28;20923;-72
2022/06/08 04:24:15;;;;;;;2.63;1.47;;;;;;;;;;4955504;28;20407;-71
2022/06/08 04:26:42;;;;;;;15.33;1.40;;;;;;;;;;4955845;28;20434;-73
2022/06/08 04:29:09;;;;;;;2.40;1.27;;;;;;;;;;4955187;28;20498;-72
2022/06/08 04:31:35;;;;;;;3.87;1.80;;;;;;;;;;4955181;28;20477;-72
2022/06/08 04:34:03;;;;;;;4.37;1.53;;;;;;;;;;4955682;28;20411;-72
2022/06/08 04:36:29;;;;;;;0.97;0.97;;;;;;;;;;4955067;28;20474;-71
2022/06/08 04:38:55;;;;;;;2.53;1.57;;;;;;;;;;4955051;28;21037;-72
2022/06/08 04:41:22;;;;;;;2.47;1.10;;;;;;;;;;4955094;28;20463;-72
2022/06/08 04:43:48;;;;;;;2.00;1.17;;;;;;;;;;4955146;28;20418;-71
2022/06/08 04:46:17;;;;;;;1.30;1.30;;;;;;;;;;4955475;28;20441;-72
2022/06/08 04:48:43;;;;;;;2.00;0.90;;;;;;;;;;4954912;28;20474;-71
2022/06/08 04:51:10;;;;;;;3.50;1.47;;;;;;;;;;4954836;28;20429;-72
2022/06/08 04:53:37;;;;;;;3.90;1.80;;;;;;;;;;4955450;28;20427;-72
2022/06/08 04:56:03;;;;;;;2.77;1.17;;;;;;;;;;4955026;28;20597;-72
2022/06/08 04:58:29;;;;;;;5.20;1.50;;;;;;;;;;4954935;28;20506;-72
2022/06/08 05:00:55;;;;;;;4.23;1.30;;;;;;;;;;4954925;28;20430;-71
2022/06/08 05:03:21;;;;;;;1.63;1.53;;;;;;;;;;4955161;28;20477;-72
2022/06/08 05:05:47;;;;;;;1.03;1.03;;;;;;;;;;4955144;28;20787;-71
2022/06/08 05:08:16;;;;;;;1.63;1.47;;;;;;;;;;4954937;28;20930;-72
2022/06/08 05:10:42;;;;;;;2.40;1.60;;;;;;;;;;4955050;28;20422;-72
2022/06/08 05:13:09;;;;;;;5.80;1.47;;;;;;;;;;4954885;28;20914;-72
2022/06/08 05:15:36;;;;;;;9.13;1.37;;;;;;;;;;4954620;28;20494;-72
2022/06/08 05:18:03;;;;;;;3.13;1.37;;;;;;;;;;4954775;28;20470;-73
2022/06/08 05:20:29;;;;;;;8.30;1.70;;;;;;;;;;4954293;28;20466;-72
2022/06/08 05:22:56;;;;;;;1.27;1.17;;;;;;;;;;4954694;28;20604;-71
2022/06/08 05:25:24;;;;;;;1.20;1.03;;;;;;;;;;4954810;28;20430;-72
2022/06/08 05:27:50;;;;;;;2.53;1.17;;;;;;;;;;4955287;28;20423;-71
2022/06/08 05:30:16;;;;;;;7.73;1.00;;;;;;;;;;4954568;28;20946;-72
2022/06/08 05:32:42;;;;;;;1.33;1.10;;;;;;;;;;4955443;28;20434;-72
2022/06/08 05:35:08;;;;;;;1.47;1.10;;;;;;;;;;4958425;28;20774;-72
2022/06/08 05:37:34;;;;;;;1.77;1.60;;;;;;;;;;4958328;28;20427;-72
2022/06/08 05:40:00;;;;;;;1.70;1.00;;;;;;;;;;4972955;28;20824;-72
2022/06/08 05:42:26;;;;;;;1.57;0.93;;;;;;;;;;4958375;28;20427;-72
2022/06/08 05:44:52;;;;;;;1.13;1.00;;;;;;;;;;4958222;28;20779;-72
2022/06/08 05:47:18;;;;;;;19.73;1.53;;;;;;;;;;4972948;28;20442;-71
2022/06/08 05:49:44;;;;;;;1.40;1.40;;;;;;;;;;4958043;28;20988;-72
2022/06/08 05:52:11;;;;;;;1.83;0.80;;;;;;;;;;4957878;28;20438;-71
2022/06/08 05:54:37;;;;;;;6.23;1.20;;;;;;;;;;4958228;28;20824;-71
2022/06/08 05:57:03;;;;;;;10.03;4.70;;;;;;;;;;4958139;28;20481;-72
2022/06/08 05:59:29;;;;;;;4.17;1.10;;;;;;;;;;4957872;28;20470;-71
2022/06/08 06:01:56;;;;;;;2.20;1.30;;;;;;;;;;4957694;28;20923;-72
2022/06/08 06:04:22;;;;;;;1.60;0.90;;;;;;;;;;4957790;28;20531;-71
2022/06/08 06:06:48;;;;;;;2.13;1.20;;;;;;;;;;4957886;28;20490;-71
2022/06/08 06:09:15;;;;;;;5.13;1.30;;;;;;;;;;4958009;28;20431;-73
2022/06/08 06:11:41;;;;;;;0.70;0.70;;;;;;;;;;4957213;28;20434;-72
2022/06/08 06:14:07;;;;;;;0.70;0.70;;;;;;;;;;4957633;28;20427;-72
2022/06/08 06:16:33;;;;;;;0.90;0.90;;;;;;;;;;4957405;28;20482;-76
2022/06/08 06:18:59;;;;;;;1.07;1.07;;;;;;;;;;4957395;28;20419;-77
2022/06/08 06:21:26;;;;;;;5.60;1.43;;;;;;;;;;4957818;28;20422;-74
2022/06/08 06:23:52;;;;;;;1.97;1.00;;;;;;;;;;4957395;28;20414;-75
2022/06/08 06:26:18;;;;;;;1.07;1.07;;;;;;;;;;4957381;28;20411;-74
2022/06/08 06:28:45;;;;;;;2.73;0.90;;;;;;;;;;4957578;28;20465;-73
2022/06/08 06:31:23;;;;;;;3.20;1.20;;;;;;;;;;4957489;28;20592;-73
2022/06/08 06:33:49;;;;;;;3.53;1.50;;;;;;;;;;4957540;28;20965;-77
2022/06/08 06:36:15;;;;;;;1.27;0.90;;;;;;;;;;4957083;28;20478;-74
2022/06/08 06:38:41;;;;;;;0.90;0.90;;;;;;;;;;4957165;28;20506;-74
2022/06/08 06:41:10;;;;;;;1.97;1.87;;;;;;;;;;4957559;28;20467;-72
2022/06/08 06:43:36;;;;;;;1.70;1.20;;;;;;;;;;4956818;28;20422;-73
2022/06/08 06:46:02;;;;;;;1.50;1.40;;;;;;;;;;4957068;28;20423;-75
2022/06/08 06:48:29;;;;;;;4.73;1.00;;;;;;;;;;4956812;28;20462;-73
2022/06/08 06:50:55;;;;;;;4.53;1.23;;;;;;;;;;4957016;28;20419;-72
2022/06/08 06:53:21;;;;;;;1.80;1.17;;;;;;;;;;4956905;28;20473;-76
2022/06/08 06:55:47;;;;;;;10.10;1.37;;;;;;;;;;4956804;28;20542;-75
2022/06/08 06:58:13;;;;;;;1.90;1.00;;;;;;;;;;4956835;28;20431;-73
2022/06/08 07:00:38;;;;;;;1.43;0.73;;;;;;;;;;4956913;28;20826;-76
2022/06/08 07:03:05;;;;;;;1.97;1.00;;;;;;;;;;4957027;28;20426;-74
2022/06/08 07:05:32;;;;;;;3.13;0.90;;;;;;;;;;4956931;28;20473;-75
2022/06/08 07:07:59;;;;;;;3.03;0.70;;;;;;;;;;4956617;28;20821;-76
2022/06/08 07:10:24;;;;;;;5.70;1.20;;;;;;;;;;4971339;28;20813;-75
2022/06/08 07:12:50;;;;;;;2.73;0.93;;;;;;;;;;4956857;28;20526;-75
2022/06/08 07:15:18;;;;;;;1.87;1.70;;;;;;;;;;4956673;28;20423;-76
2022/06/08 07:17:44;;;;;;;1.50;0.80;;;;;;;;;;4956492;28;20434;-74
2022/06/08 07:20:11;;;;;;;1.63;1.23;;;;;;;;;;4956407;28;20506;-74
2022/06/08 07:22:37;;;;;;;5.70;1.10;;;;;;;;;;4956385;28;20939;-75
2022/06/08 07:25:04;;;;;;;2.10;1.40;;;;;;;;;;4957030;28;20465;-73
2022/06/08 07:27:30;;;;;;;1.63;1.17;;;;;;;;;;4956523;28;20566;-72
2022/06/08 07:29:57;;;;;;;0.70;0.70;;;;;;;;;;4956280;28;20466;-76
2022/06/08 07:32:23;;;;;;;2.83;1.17;;;;;;;;;;4956147;28;20415;-74
2022/06/08 07:34:48;;;;;;;0.90;0.90;;;;;;;;;;4956245;28;20783;-75
2022/06/08 07:37:15;;;;;;;1.23;0.70;;;;;;;;;;4956021;28;20481;-77
2022/06/08 07:39:41;;;;;;;0.80;0.80;;;;;;;;;;4956181;28;20494;-77
2022/06/08 07:42:07;;;;;;;2.93;1.10;;;;;;;;;;4956003;28;20463;-75
2022/06/08 07:44:33;;;;;;;1.60;1.00;;;;;;;;;;4956235;28;20454;-76
2022/06/08 07:46:59;;;;;;;1.47;1.10;;;;;;;;;;4955794;28;20427;-73
2022/06/08 07:49:39;;;;;;;3.47;1.10;;;;;;;;;;4955600;28;20466;-73
2022/06/08 07:52:09;;;;;;;1.90;1.50;;;;;;;;;;4956126;28;20395;-72
2022/06/08 07:54:35;;;;;;;12.20;1.13;;;;;;;;;;4955758;28;20425;-77
2022/06/08 07:57:02;;;;;;;1.30;1.20;;;;;;;;;;4955172;28;20470;-74
2022/06/08 07:59:29;;;;;;;3.03;1.20;;;;;;;;;;4955646;28;20433;-74
2022/06/08 08:01:56;;;;;;;2.73;0.77;;;;;;;;;;4955625;28;20853;-78
2022/06/08 08:04:22;;;;;;;3.17;0.90;;;;;;;;;;4970447;28;20419;-77
2022/06/08 08:06:48;;;;;;;0.80;0.73;;;;;;;;;;4955905;28;20414;-75
2022/06/08 08:09:18;;;;;;;7.77;1.10;;;;;;;;;;4955760;28;20466;-73
2022/06/08 08:11:45;;;;;;;7.60;1.93;;;;;;;;;;4955475;28;20422;-76
2022/06/08 08:14:12;;;;;;;7.50;1.10;;;;;;;;;;4955669;28;20411;-75
2022/06/08 08:16:38;;;;;;;1.07;1.07;;;;;;;;;;4955177;28;20478;-72
2022/06/08 08:19:04;;;;;;;11.97;1.37;;;;;;;;;;4955557;28;20562;-73
2022/06/08 08:21:32;;;;;;;14.00;1.33;;;;;;;;;;4955376;28;20757;-76
2022/06/08 08:24:01;;;;;;;2.27;1.13;;;;;;;;;;4955813;28;20183;-75
2022/06/08 08:26:27;;;;;;;1.20;1.10;;;;;;;;;;4955551;28;20958;-74
2022/06/08 08:28:54;;;;;;;3.57;1.47;;;;;;;;;;4955823;28;20918;-71
2022/06/08 08:31:21;;;;;;;3.53;1.30;;;;;;;;;;4955301;28;20423;-74
2022/06/08 08:33:47;;;;;;;5.80;1.67;;;;;;;;;;4969923;28;20939;-72
2022/06/08 08:36:13;;;;;;;3.50;0.93;;;;;;;;;;4955350;28;20565;-71
2022/06/08 08:38:40;;;;;;;1.87;1.67;;;;;;;;;;4955142;28;20415;-75
2022/06/08 08:42:20;;;;;;;2.63;1.47;;;;;;;;;;4955153;28;20423;-67
2022/06/08 08:43:52;;;;;;;3.03;1.90;;;;;;;;;;4954625;28;20478;-72
2022/06/08 08:46:27;;;;;;;9.77;1.80;;;;;;;;;;4954614;28;20968;-75
2022/06/08 08:48:57;;;;;;;4.57;1.60;;;;;;;;;;4954884;28;20827;-77
2022/06/08 08:51:25;;;;;;;5.60;1.07;;;;;;;;;;4955105;28;20450;-73
2022/06/08 08:54:03;;;;;;;2.77;1.37;;;;;;;;;;4955055;28;20981;-75
2022/06/08 08:56:35;;;;;;;6.43;1.50;;;;;;;;;;4955043;28;20484;-74
2022/06/08 08:59:01;;;;;;;1.40;1.30;;;;;;;;;;4955131;28;20495;-76
2022/06/08 09:01:29;;;;;;;1.20;1.10;;;;;;;;;;4955154;28;20453;-73
2022/06/08 09:03:57;;;;;;;2.83;1.47;;;;;;;;;;4954854;28;20765;-73
2022/06/08 09:06:24;;;;;;;4.67;1.63;;;;;;;;;;4955563;28;20423;-72
2022/06/08 09:08:52;;;;;;;2.50;1.40;;;;;;;;;;4958749;28;20420;-72
2022/06/08 09:11:20;;;;;;;3.40;0.90;;;;;;;;;;4958603;28;20521;-74
2022/06/08 09:13:45;;;;;;;3.27;2.90;;;;;;;;;;4958449;28;20941;-73
2022/06/08 09:16:25;;;;;;;1.50;1.43;;;;;;;;;;4958073;28;20474;-73
2022/06/08 09:18:51;;;;;;;1.17;0.77;;;;;;;;;;4958328;28;20557;-77
2022/06/08 09:21:20;;;;;;;2.70;1.00;;;;;;;;;;4958278;28;20949;-72
2022/06/08 09:23:49;;;;;;;2.40;0.73;;;;;;;;;;4958301;28;20413;-71
2022/06/08 09:26:29;;;;;;;0.73;0.70;;;;;;;;;;4958249;28;20474;-72
2022/06/08 09:28:59;;;;;;;2.90;0.90;;;;;;;;;;4958293;28;20399;-73
2022/06/08 09:31:28;;;;;;;9.73;1.00;;;;;;;;;;4958180;28;20423;-72
2022/06/08 09:34:14;;;;;;;1.60;0.83;;;;;;;;;;4958255;28;20411;-72
2022/06/08 09:36:42;;;;;;;2.80;1.13;;;;;;;;;;4958243;28;20583;-76
2022/06/08 09:39:09;;;;;;;6.70;0.90;;;;;;;;;;4958106;28;20423;-73
2022/06/08 09:41:38;;;;;;;0.90;0.90;;;;;;;;;;4957979;28;20927;-75
2022/06/08 09:44:14;;;;;;;1.20;0.60;;;;;;;;;;4972822;28;20427;-73
2022/06/08 09:53:02;;;;;;;2.33;0.93;;;;;;;;;;4958284;29;20495;-71
2022/06/08 09:55:46;;;;;;;1.13;0.60;;;;;;;;;;4945943;28;20533;-73
2022/06/08 09:58:21;;;;;;;1.60;0.90;;;;;;;;;;4957880;28;20426;-77
2022/06/08 10:00:53;;;;;;;1.17;0.70;;;;;;;;;;4957652;28;20504;-75
2022/06/08 10:03:28;;;;;;;1.00;1.00;;;;;;;;;;4958366;28;20403;-71
2022/06/08 10:05:57;;;;;;;3.40;0.57;;;;;;;;;;4957866;28;20907;-74
2022/06/08 10:08:28;;;;;;;3.60;1.30;;;;;;;;;;4958018;28;20430;-72
2022/06/08 10:11:04;;;;;;;1.13;0.73;;;;;;;;;;4957446;28;20928;-74
2022/06/08 10:13:39;;;;;;;1.20;1.10;;;;;;;;;;4957919;28;20732;-74
2022/06/08 10:16:11;;;;;;;1.30;1.30;;;;;;;;;;4957485;28;20474;-76
2022/06/08 10:18:40;;;;;;;3.40;1.40;;;;;;;;;;4957169;28;20411;-76
2022/06/08 10:21:13;;;;;;;0.67;0.50;;;;;;;;;;4957742;28;20427;-71
2022/06/08 10:23:45;;;;;;;0.60;0.50;;;;;;;;;;4957740;28;20513;-74
2022/06/08 10:26:21;;;;;;;5.60;1.50;;;;;;;;;;4957282;28;20415;-71
2022/06/08 10:28:53;;;;;;;2.70;0.90;;;;;;;;;;4957083;28;20475;-73
2022/06/08 10:31:22;;;;;;;0.90;0.90;;;;;;;;;;4957164;28;20929;-71
2022/06/08 10:34:17;;;;;;;1.10;1.10;;;;;;;;;;4957565;28;20423;-73
2022/06/08 10:36:44;;;;;;;3.60;1.07;;;;;;;;;;4963918;28;20490;-77
2022/06/08 10:39:12;;;;;;;1.17;1.07;;;;;;;;;;4957324;28;20427;-71
2022/06/08 10:44:33;;;;;;;4.23;0.50;;;;;;;;;;4957328;29;20419;-71
2022/06/08 10:47:16;;;;;;;1.13;0.70;;;;;;;;;;4956898;28;20423;-72
2022/06/08 10:49:45;;;;;;;3.90;0.97;;;;;;;;;;4956316;28;20482;-73
2022/06/08 10:52:14;;;;;;;4.30;0.60;;;;;;;;;;4956550;28;20421;-77
2022/06/08 10:54:54;;;;;;;7.13;0.90;;;;;;;;;;4957179;28;20431;-75
2022/06/08 10:57:32;;;;;;;2.53;0.93;;;;;;;;;;4956485;28;20553;-73
2022/06/08 11:00:18;;;;;;;0.53;0.53;;;;;;;;;;4956421;28;20426;-74
2022/06/08 11:02:45;;;;;;;0.50;0.50;;;;;;;;;;4956488;28;20447;-75
2022/06/08 11:05:19;;;;;;;2.73;0.87;;;;;;;;;;4956054;28;20427;-75
2022/06/08 11:08:13;;;;;;;2.23;0.70;;;;;;;;;;4956461;28;20421;-75
2022/06/08 11:10:50;;;;;;;0.73;0.73;;;;;;;;;;4956329;28;20426;-76
2022/06/08 11:13:23;;;;;;;1.17;0.70;;;;;;;;;;4956179;28;20406;-75
2022/06/08 11:15:55;;;;;;;0.70;0.70;;;;;;;;;;4955981;29;20469;-72
2022/06/08 11:18:21;;;;;;;2.00;1.67;;;;;;;;;;4970828;28;20431;-73
2022/06/08 11:20:57;;;;;;;0.77;0.70;;;;;;;;;;4956168;28;20425;-72
2022/06/08 11:23:49;;;;;;;4.60;0.80;;;;;;;;;;4956145;28;20203;-73
2022/06/08 11:26:25;;;;;;;0.77;0.77;;;;;;;;;;4954663;28;20415;-76
2022/06/08 11:29:25;;;;;;;1.47;1.40;;;;;;;;;;4955922;28;20415;-71
2022/06/08 11:31:55;;;;;;;1.10;1.00;;;;;;;;;;4954805;28;20416;-71
2022/06/08 11:34:21;;;;;;;6.17;1.10;;;;;;;;;;4955920;28;20204;-75
2022/06/08 11:36:50;;;;;;;1.33;1.10;;;;;;;;;;4955762;28;20478;-74
2022/06/08 11:39:19;;;;;;;0.93;0.70;;;;;;;;;;4955483;28;20526;-71
2022/06/08 11:41:56;;;;;;;3.60;1.20;;;;;;;;;;4955617;28;20419;-75
2022/06/08 11:44:22;;;;;;;1.80;0.97;;;;;;;;;;4955614;28;20438;-72
2022/06/08 11:46:49;;;;;;;1.60;1.00;;;;;;;;;;4955435;28;20438;-72
2022/06/08 11:49:37;;;;;;;2.77;1.37;;;;;;;;;;4955511;28;20481;-75
2022/06/08 11:52:28;;;;;;;1.33;0.90;;;;;;;;;;5062459;28;20559;-70
2022/06/08 11:55:08;;;;;;;1.93;1.43;;;;;;;;;;5059275;28;20506;-70
2022/06/08 11:57:34;;;;;;;1.00;1.00;;;;;;;;;;5061996;28;20468;-70
2022/06/08 12:00:06;;;;;;;0.90;0.90;;;;;;;;;;5063985;28;20418;-71
2022/06/08 12:02:40;;;;;;;1.00;1.00;;;;;;;;;;5063498;28;20434;-70
2022/06/08 12:05:10;;;;;;;6.10;1.50;;;;;;;;;;5063383;28;20418;-74
2022/06/08 12:07:42;;;;;;;0.90;0.90;;;;;;;;;;5046496;28;20485;-70
2022/06/08 12:10:11;;;;;;;1.00;0.90;;;;;;;;;;5064712;28;20473;-72
2022/06/08 12:12:37;;;;;;;0.83;0.70;;;;;;;;;;5063349;28;20425;-72
2022/06/08 12:15:22;;;;;;;0.97;0.87;;;;;;;;;;5064092;28;20406;-71
2022/06/08 12:17:48;;;;;;;3.20;0.80;;;;;;;;;;5058455;28;21359;-74
2022/06/08 12:20:23;;;;;;;5.23;1.17;;;;;;;;;;5063617;28;20440;-71
2022/06/08 12:22:54;;;;;;;3.03;0.97;;;;;;;;;;5062500;28;20445;-74
2022/06/08 12:25:21;;;;;;;4.70;0.97;;;;;;;;;;5055120;28;20481;-72
2022/06/08 12:27:50;;;;;;;2.00;0.70;;;;;;;;;;5056398;28;20504;-74
2022/06/08 12:30:19;;;;;;;1.33;1.00;;;;;;;;;;5059239;28;20526;-71
2022/06/08 12:32:56;;;;;;;3.30;0.80;;;;;;;;;;5056226;28;21025;-72
2022/06/08 12:35:23;;;;;;;0.60;0.57;;;;;;;;;;5060310;28;20524;-72
2022/06/08 12:38:11;;;;;;;3.70;1.23;;;;;;;;;;5062503;28;20418;-73
2022/06/08 12:40:37;;;;;;;3.90;1.20;;;;;;;;;;5065048;28;20781;-75
2022/06/08 12:43:11;;;;;;;1.40;0.80;;;;;;;;;;5057120;28;20429;-71
2022/06/08 12:45:39;;;;;;;6.83;0.80;;;;;;;;;;5058901;28;20954;-70
2022/06/08 12:48:20;;;;;;;5.13;0.60;;;;;;;;;;5059458;28;20475;-73
2022/06/08 12:50:46;;;;;;;2.73;1.33;;;;;;;;;;5060216;28;20497;-72
2022/06/08 12:53:12;;;;;;;1.40;1.03;;;;;;;;;;5062101;28;20449;-72
2022/06/08 12:55:40;;;;;;;0.97;0.90;;;;;;;;;;5061773;28;20475;-71
2022/06/08 12:58:06;;;;;;;0.60;0.60;;;;;;;;;;5061192;28;21007;-71
2022/06/08 13:00:36;;;;;;;10.33;1.73;;;;;;;;;;5060764;28;20437;-71
2022/06/08 13:03:10;;;;;;;2.00;0.63;;;;;;;;;;5047388;28;20442;-71
2022/06/08 13:05:36;;;;;;;3.03;1.00;;;;;;;;;;5047073;28;20482;-72
2022/06/08 13:08:03;;;;;;;3.23;0.83;;;;;;;;;;5044676;28;20810;-75
2022/06/08 13:10:30;;;;;;;1.40;1.30;;;;;;;;;;5043479;28;20493;-71
2022/06/08 13:12:59;;;;;;;3.03;0.97;;;;;;;;;;5042397;28;20514;-71
2022/06/08 13:15:28;;;;;;;1.40;0.80;;;;;;;;;;5047068;28;20910;-70
2022/06/08 13:17:54;;;;;;;5.50;1.20;;;;;;;;;;5046804;28;20426;-71
2022/06/08 13:20:22;;;;;;;3.80;1.20;;;;;;;;;;5051284;28;20422;-71
2022/06/08 13:22:48;;;;;;;3.33;1.40;;;;;;;;;;5049119;28;20476;-70
2022/06/08 13:25:15;;;;;;;4.93;2.30;;;;;;;;;;5044813;28;20457;-71
2022/06/08 13:27:44;;;;;;;2.00;1.30;;;;;;;;;;5040126;28;20473;-70
2022/06/08 13:30:39;;;;;;;4.63;1.00;;;;;;;;;;5040569;28;20585;-71
2022/06/08 13:33:56;;;;;;;1.93;1.57;;;;;;;;;;5039780;28;20434;-71
2022/06/08 13:35:51;;;;;;;3.30;1.57;;;;;;;;;;5046911;28;20505;-71
2022/06/08 13:38:19;;;;;;;1.77;1.67;;;;;;;;;;5046357;28;20834;-70
2022/06/08 13:40:45;;;;;;;1.33;1.23;;;;;;;;;;5049595;28;20509;-70
2022/06/08 13:43:11;;;;;;;1.97;1.20;;;;;;;;;;5045088;28;20533;-70
2022/06/08 13:45:41;;;;;;;10.43;1.37;;;;;;;;;;5047047;28;20896;-71
2022/06/08 13:48:12;;;;;;;3.87;1.70;;;;;;;;;;5047936;28;20457;-71
2022/06/08 13:50:40;;;;;;;2.30;1.70;;;;;;;;;;5047924;28;20490;-70
2022/06/08 13:53:09;;;;;;;6.00;2.17;;;;;;;;;;5044648;28;20453;-71
2022/06/08 13:55:37;;;;;;;4.93;1.70;;;;;;;;;;5047192;28;20427;-71
2022/06/08 13:58:05;;;;;;;6.60;1.80;;;;;;;;;;5042297;28;20453;-72
2022/06/08 14:00:36;;;;;;;4.73;1.47;;;;;;;;;;5044304;28;20504;-70
2022/06/08 14:03:08;;;;;;;6.53;1.70;;;;;;;;;;5045458;28;20985;-73
2022/06/08 14:13:51;;;;;;;1.50;1.40;;;;;;;;;;5045826;28;20421;-70
2022/06/08 14:16:17;;;;;;;2.97;1.47;;;;;;;;;;5041571;28;20491;-72
2022/06/08 14:18:45;;;;;;;1.60;1.50;;;;;;;;;;5039944;28;20435;-70
2022/06/08 14:21:12;;;;;;;2.83;1.60;;;;;;;;;;5045246;28;20933;-70
2022/06/08 14:23:41;;;;;;;1.40;1.30;;;;;;;;;;5047358;28;20953;-72
2022/06/08 14:26:08;;;;;;;27.30;2.23;;;;;;;;;;5041532;28;20438;-70
2022/06/08 14:28:35;;;;;;;2.47;1.47;;;;;;;;;;5046082;28;20533;-70
2022/06/08 14:31:01;;;;;;;1.70;1.63;;;;;;;;;;5034280;28;20518;-71
2022/06/08 14:33:33;;;;;;;11.33;2.00;;;;;;;;;;5029696;28;20458;-70
2022/06/08 14:36:00;;;;;;;1.40;1.30;;;;;;;;;;5027721;28;20447;-72
2022/06/08 14:38:31;;;;;;;5.97;5.13;;;;;;;;;;5029109;28;20441;-70
2022/06/08 14:40:59;;;;;;;2.20;2.00;;;;;;;;;;5026583;28;20442;-70
2022/06/08 14:43:25;;;;;;;1.10;1.07;;;;;;;;;;5028245;28;20434;-71
2022/06/08 14:45:51;;;;;;;4.13;1.83;;;;;;;;;;5027565;28;20799;-70
2022/06/08 14:48:19;;;;;;;3.90;1.97;;;;;;;;;;5028772;28;20431;-72
2022/06/08 14:50:47;;;;;;;1.90;1.80;;;;;;;;;;5027662;28;20574;-70
2022/06/08 14:53:14;;;;;;;1.50;1.40;;;;;;;;;;5028654;28;20474;-71
2022/06/08 14:58:25;;;;;;;3.00;1.90;;;;;;;;;;5027478;28;20434;-70
2022/06/08 15:00:51;;;;;;;2.70;2.60;;;;;;;;;;5025603;28;20435;-70
2022/06/08 15:03:19;;;;;;;2.47;1.97;;;;;;;;;;5028250;28;20427;-71
2022/06/08 15:05:45;;;;;;;7.17;1.90;;;;;;;;;;5027327;28;20465;-70
2022/06/08 15:08:12;;;;;;;2.20;1.70;;;;;;;;;;5026871;28;20927;-70
2022/06/08 15:13:26;;;;;;;3.57;2.17;;;;;;;;;;5028470;28;20542;-71
2022/06/08 15:15:52;;;;;;;4.37;2.57;;;;;;;;;;5027442;28;20485;-71
2022/06/08 15:18:19;;;;;;;2.53;1.93;;;;;;;;;;5027571;28;20877;-71
2022/06/08 15:20:44;;;;;;;4.33;1.30;;;;;;;;;;5026818;28;20958;-70